Time;durP1;ratioP1;P1;durP2;ratioP2;P2;SDS_P1;SDS_P2;PMS_P1;PMS_P2;Temp;Humidity;BMP_temperature;BMP_pressure;BME280_temperature;BME280_humidity;BME280_pressure;Samples;Min_cycle;Max_cycle;Signal;HPM_P1;HPM_P2
2022/03/12 00:02:00;;;;;;;22.15;9.55;;;;;;;-4.41;41.35;101994.94;4424771;32;20101;-74
2022/03/12 00:04:30;;;;;;;19.40;7.85;;;;;;;-4.36;40.64;101995.28;4439250;32;20089;-74
2022/03/12 00:06:58;;;;;;;16.75;6.95;;;;;;;-4.27;40.88;101992.50;4439101;32;20089;-74
2022/03/12 00:09:25;;;;;;;17.48;7.65;;;;;;;-4.31;40.70;101991.38;4425044;32;20085;-74
2022/03/12 00:12:00;;;;;;;23.25;7.30;;;;;;;-4.23;40.33;101995.41;4424798;32;20140;-75
2022/03/12 00:14:28;;;;;;;17.05;7.18;;;;;;;-4.42;41.45;101982.84;4439266;32;20489;-74
2022/03/12 00:16:58;;;;;;;14.48;6.50;;;;;;;-4.58;41.70;101985.09;4424661;32;20081;-75
2022/03/12 00:19:27;;;;;;;16.45;6.50;;;;;;;-4.44;40.84;101983.53;4438950;32;20084;-74
2022/03/12 00:21:55;;;;;;;13.93;6.37;;;;;;;-4.59;41.38;101986.75;4439194;32;20090;-74
2022/03/12 00:24:25;;;;;;;11.57;5.85;;;;;;;-4.74;41.92;101987.28;4439001;32;20126;-75
2022/03/12 00:26:52;;;;;;;15.38;6.35;;;;;;;-4.84;41.83;101990.81;4439176;32;20089;-75
2022/03/12 00:29:20;;;;;;;12.63;6.20;;;;;;;-5.01;44.18;101981.84;4439232;32;20097;-75
2022/03/12 00:31:50;;;;;;;12.65;6.40;;;;;;;-4.93;43.31;101982.44;4424865;32;20204;-75
2022/03/12 00:34:20;;;;;;;14.63;5.93;;;;;;;-4.85;43.12;101989.94;4439113;32;20127;-75
2022/03/12 00:36:48;;;;;;;14.77;5.97;;;;;;;-4.87;42.64;101986.37;4439167;32;20081;-75
2022/03/12 00:39:16;;;;;;;12.13;6.12;;;;;;;-4.89;43.00;101982.78;4438929;32;20143;-75
2022/03/12 00:41:44;;;;;;;12.88;6.00;;;;;;;-4.87;42.57;101986.37;4439119;32;20194;-74
2022/03/12 00:44:14;;;;;;;13.45;6.43;;;;;;;-4.75;41.81;101982.91;4439135;32;20104;-75
2022/03/12 00:46:41;;;;;;;13.60;6.45;;;;;;;-4.71;42.40;101992.66;4438934;32;20111;-74
2022/03/12 00:49:08;;;;;;;15.02;5.72;;;;;;;-4.70;42.09;101979.94;4439267;32;20423;-75
2022/03/12 00:51:38;;;;;;;12.32;5.82;;;;;;;-4.74;42.08;101977.88;4438722;32;20136;-75
2022/03/12 00:54:06;;;;;;;10.35;5.43;;;;;;;-4.75;41.73;101988.94;4424493;32;20172;-75
2022/03/12 00:56:34;;;;;;;15.50;5.90;;;;;;;-4.75;41.65;101990.63;4423976;32;20493;-74
2022/03/12 00:59:01;;;;;;;12.05;5.47;;;;;;;-4.75;41.43;101985.50;4438884;32;20429;-75
2022/03/12 01:01:28;;;;;;;13.05;5.70;;;;;;;-4.91;42.37;101974.06;4424662;32;20166;-74
2022/03/12 01:03:56;;;;;;;11.27;5.85;;;;;;;-4.89;42.13;101982.78;4438805;32;20109;-74
2022/03/12 01:06:23;;;;;;;13.30;6.43;;;;;;;-4.81;41.51;101980.78;4411815;32;20103;-75
2022/03/12 01:08:50;;;;;;;13.60;5.90;;;;;;;-4.78;41.91;101978.44;4438732;32;20162;-75
2022/03/12 01:11:20;;;;;;;12.98;5.00;;;;;;;-4.85;42.37;101979.66;4438756;32;20112;-75
2022/03/12 01:13:47;;;;;;;11.07;5.03;;;;;;;-4.79;42.57;101981.78;4438759;32;20092;-75
2022/03/12 01:16:14;;;;;;;10.20;4.85;;;;;;;-4.73;41.79;101982.25;4424084;32;20167;-75
2022/03/12 01:18:42;;;;;;;11.15;4.97;;;;;;;-4.68;41.14;101980.91;4438670;32;20089;-75
2022/03/12 01:21:17;;;;;;;9.57;4.75;;;;;;;-4.68;42.19;101977.47;4438621;32;20136;-75
2022/03/12 01:23:47;;;;;;;14.02;5.00;;;;;;;-4.75;42.28;101976.09;4438764;32;20412;-75
2022/03/12 01:26:15;;;;;;;11.63;5.37;;;;;;;-4.90;42.49;101981.00;4438569;32;20080;-75
2022/03/12 01:28:43;;;;;;;13.43;5.22;;;;;;;-4.82;42.75;101979.88;4438849;32;20101;-75
2022/03/12 01:31:11;;;;;;;12.63;5.18;;;;;;;-4.85;42.88;101983.91;4438541;32;20243;-75
2022/03/12 01:33:38;;;;;;;12.45;5.45;;;;;;;-5.02;42.88;101985.19;4438732;32;20574;-75
2022/03/12 01:36:06;;;;;;;11.23;6.00;;;;;;;-5.00;42.86;101982.75;4438593;32;20100;-75
2022/03/12 01:38:56;;;;;;;17.65;6.07;;;;;;;-5.05;42.96;101982.41;4424642;32;20484;-75
2022/03/12 01:41:30;;;;;;;14.53;5.53;;;;;;;-5.03;44.01;101982.50;4436103;32;20149;-75
2022/03/12 01:44:00;;;;;;;12.35;6.15;;;;;;;-4.91;43.19;101984.34;4438422;32;20176;-75
2022/03/12 01:46:41;;;;;;;10.77;5.50;;;;;;;-4.97;43.41;101983.88;4438247;32;20128;-75
2022/03/12 01:49:14;;;;;;;13.00;5.93;;;;;;;-4.82;43.47;101994.41;4424105;32;20109;-75
2022/03/12 01:51:43;;;;;;;9.52;5.37;;;;;;;-4.85;43.21;101995.06;4423987;32;20163;-75
2022/03/12 01:54:13;;;;;;;13.10;5.45;;;;;;;-4.78;42.62;102005.81;4438273;32;20812;-75
2022/03/12 01:56:40;;;;;;;12.82;5.55;;;;;;;-4.78;42.80;102000.69;4438302;32;20123;-75
2022/03/12 01:59:08;;;;;;;9.05;5.25;;;;;;;-4.74;42.70;101993.31;4438218;32;20441;-75
2022/03/12 02:01:35;;;;;;;12.40;5.78;;;;;;;-4.76;42.41;102002.59;4438189;32;20092;-75
2022/03/12 02:04:09;;;;;;;11.63;5.70;;;;;;;-4.61;42.16;102003.75;4438330;32;20469;-75
2022/03/12 02:06:42;;;;;;;12.50;6.05;;;;;;;-4.55;42.59;102000.75;4424453;32;20518;-75
2022/03/12 02:09:14;;;;;;;14.68;5.72;;;;;;;-4.58;42.19;102003.09;4438996;32;20089;-75
2022/03/12 02:11:43;;;;;;;11.52;6.07;;;;;;;-4.59;42.14;102006.44;4440018;32;20165;-75
2022/03/12 02:14:13;;;;;;;10.73;6.35;;;;;;;-4.56;42.30;102001.50;4440004;32;20180;-75
2022/03/12 02:16:47;;;;;;;12.52;6.05;;;;;;;-4.42;42.04;101988.00;4440120;32;20111;-75
2022/03/12 02:19:14;;;;;;;10.70;5.57;;;;;;;-4.37;42.58;101990.94;4439936;32;20077;-74
2022/03/12 02:21:54;;;;;;;14.32;5.62;;;;;;;-4.33;41.79;101991.25;4425933;32;20131;-75
2022/03/12 02:24:24;;;;;;;13.20;6.05;;;;;;;-4.34;41.68;101991.16;4425408;32;20542;-75
2022/03/12 02:26:53;;;;;;;11.65;5.37;;;;;;;-4.38;41.94;101990.03;4440063;32;20449;-75
2022/03/12 02:29:22;;;;;;;11.60;5.75;;;;;;;-4.37;41.39;101991.81;4439922;32;20094;-75
2022/03/12 02:32:03;;;;;;;10.95;5.70;;;;;;;-4.42;41.89;101988.00;4439804;32;20170;-75
2022/03/12 02:34:39;;;;;;;11.70;5.35;;;;;;;-4.42;42.10;101992.25;4439957;32;20100;-75
2022/03/12 02:37:06;;;;;;;10.47;6.00;;;;;;;-4.40;42.07;101990.69;4439912;32;20073;-75
2022/03/12 02:39:37;;;;;;;12.70;6.35;;;;;;;-4.46;42.19;101997.94;4439952;32;20127;-75
2022/03/12 02:42:06;;;;;;;15.30;7.25;;;;;;;-4.45;42.30;102004.88;4425201;32;20102;-75
2022/03/12 02:44:35;;;;;;;13.75;6.18;;;;;;;-4.42;42.22;101999.97;4439748;32;20153;-75
2022/03/12 02:47:22;;;;;;;13.82;5.57;;;;;;;-4.43;42.32;102000.75;4439731;32;20085;-75
2022/03/12 02:49:59;;;;;;;17.65;5.25;;;;;;;-4.40;42.33;102001.88;4439750;32;20119;-75
2022/03/12 02:52:28;;;;;;;9.65;5.30;;;;;;;-4.36;42.64;102003.88;4439739;32;20666;-75
2022/03/12 02:54:58;;;;;;;10.25;5.25;;;;;;;-4.39;42.42;101990.78;4425334;32;20175;-75
2022/03/12 02:57:29;;;;;;;11.57;4.80;;;;;;;-4.41;42.39;102006.91;4425409;32;20456;-75
2022/03/12 03:00:03;;;;;;;8.95;4.70;;;;;;;-4.38;42.30;102009.69;4439825;32;20219;-75
2022/03/12 03:02:41;;;;;;;11.45;5.10;;;;;;;-4.45;42.31;102012.59;4413982;32;20156;-75
2022/03/12 03:05:45;;;;;;;9.20;4.97;;;;;;;-4.53;42.55;102006.00;4439731;32;20134;-75
2022/03/12 03:08:12;;;;;;;11.38;5.00;;;;;;;-4.56;42.96;102006.66;4439527;32;20142;-75
2022/03/12 03:10:44;;;;;;;10.27;4.85;;;;;;;-4.55;43.16;102000.75;4425572;32;20081;-75
2022/03/12 03:13:30;;;;;;;8.82;4.60;;;;;;;-4.54;43.18;102001.62;4439642;32;20105;-75
2022/03/12 03:16:00;;;;;;;14.18;5.10;;;;;;;-4.47;43.08;101993.59;4439820;32;20098;-75
2022/03/12 03:18:32;;;;;;;9.82;4.87;;;;;;;-4.39;42.86;102007.91;4425294;32;20578;-75
2022/03/12 03:21:01;;;;;;;13.35;4.85;;;;;;;-4.45;42.86;102005.81;4438545;32;20433;-75
2022/03/12 03:23:31;;;;;;;11.90;5.47;;;;;;;-4.47;42.76;102016.75;4411582;32;20140;-75
2022/03/12 03:26:00;;;;;;;13.68;4.78;;;;;;;-4.44;42.98;102017.88;4424372;32;20498;-75
2022/03/12 03:28:29;;;;;;;10.38;5.18;;;;;;;-4.45;42.44;102018.66;4438593;32;20508;-75
2022/03/12 03:30:56;;;;;;;9.52;4.93;;;;;;;-4.52;42.90;102011.28;4438789;32;20620;-75
2022/03/12 03:33:25;;;;;;;11.52;4.43;;;;;;;-4.51;42.81;102017.31;4438590;32;20444;-75
2022/03/12 03:35:53;;;;;;;11.77;4.25;;;;;;;-4.54;42.62;102019.66;4438597;32;20105;-75
2022/03/12 03:38:21;;;;;;;10.75;4.72;;;;;;;-4.58;42.83;102010.81;4423996;32;20161;-75
2022/03/12 03:40:50;;;;;;;9.88;4.68;;;;;;;-4.55;43.20;102016.19;4438509;32;20490;-75
2022/03/12 03:43:20;;;;;;;17.52;4.93;;;;;;;-4.47;42.99;102019.31;4438678;32;20152;-75
2022/03/12 03:45:50;;;;;;;10.38;5.30;;;;;;;-4.50;42.68;102025.12;4438514;32;20136;-75
2022/03/12 03:48:21;;;;;;;10.70;4.87;;;;;;;-4.63;42.99;102027.53;4438381;32;20081;-75
2022/03/12 03:50:50;;;;;;;8.65;4.65;;;;;;;-4.60;43.11;102025.22;4438591;32;20097;-75
2022/03/12 03:53:21;;;;;;;8.85;4.82;;;;;;;-4.57;43.01;102022.87;4438610;32;20163;-74
2022/03/12 03:55:49;;;;;;;7.97;4.18;;;;;;;-4.50;43.26;102025.12;4438404;32;20105;-74
2022/03/12 03:58:16;;;;;;;10.88;4.87;;;;;;;-4.44;42.95;102025.59;4438566;32;20487;-74
2022/03/12 04:01:00;;;;;;;9.48;4.78;;;;;;;-4.47;42.77;102020.22;4438379;32;20093;-74
2022/03/12 04:03:32;;;;;;;10.68;4.57;;;;;;;-4.52;43.32;102025.78;4423952;32;20257;-74
2022/03/12 04:06:04;;;;;;;10.10;4.95;;;;;;;-4.50;43.13;102022.56;4438351;32;20184;-74
2022/03/12 04:08:33;;;;;;;9.32;4.60;;;;;;;-4.39;43.37;102024.25;4423915;32;20414;-75
2022/03/12 04:11:05;;;;;;;9.82;4.78;;;;;;;-4.46;42.95;102026.25;4438230;32;20092;-74
2022/03/12 04:13:33;;;;;;;10.40;4.87;;;;;;;-4.52;43.13;102021.56;4438167;32;20119;-75
2022/03/12 04:16:01;;;;;;;9.18;4.57;;;;;;;-4.53;43.13;102018.84;4438240;32;20105;-74
2022/03/12 04:18:29;;;;;;;10.07;5.20;;;;;;;-4.48;43.34;102013.28;4438133;32;20832;-74
2022/03/12 04:20:57;;;;;;;13.18;5.57;;;;;;;-4.45;42.98;102015.16;4435619;32;107732;-74
2022/03/12 04:23:27;;;;;;;10.90;4.90;;;;;;;-4.48;43.14;102020.13;4439079;32;20092;-74
2022/03/12 04:25:56;;;;;;;10.43;4.57;;;;;;;-4.53;43.31;102026.56;4439090;32;20457;-74
2022/03/12 04:28:32;;;;;;;12.20;4.95;;;;;;;-4.50;43.78;102027.69;4439134;32;20107;-74
2022/03/12 04:31:01;;;;;;;12.80;5.12;;;;;;;-4.46;43.43;102021.09;4438940;32;20095;-74
2022/03/12 04:33:29;;;;;;;14.77;5.10;;;;;;;-4.49;43.34;102016.63;4438412;32;20422;-75
2022/03/12 04:35:57;;;;;;;7.87;4.12;;;;;;;-4.48;43.32;102026.16;4438993;32;20130;-74
2022/03/12 04:38:25;;;;;;;12.05;5.65;;;;;;;-4.45;43.45;102022.87;4424386;32;20494;-74
2022/03/12 04:40:55;;;;;;;16.50;8.68;;;;;;;-4.51;43.79;102027.59;4439199;32;20146;-75
2022/03/12 04:43:25;;;;;;;14.02;6.90;;;;;;;-4.48;43.52;102018.44;4439025;32;20097;-74
2022/03/12 04:45:54;;;;;;;12.23;4.78;;;;;;;-4.40;43.59;102032.75;4439003;32;20225;-74
2022/03/12 04:48:22;;;;;;;8.93;5.03;;;;;;;-4.39;43.62;102024.25;4438833;32;20410;-74
2022/03/12 04:50:51;;;;;;;10.18;4.47;;;;;;;-4.30;43.54;102025.72;4438865;32;20501;-75
2022/03/12 04:53:21;;;;;;;10.80;5.45;;;;;;;-4.37;43.64;102027.84;4438995;32;20507;-74
2022/03/12 04:55:48;;;;;;;13.82;5.20;;;;;;;-4.40;43.58;102030.19;4424588;32;20124;-74
2022/03/12 04:58:17;;;;;;;9.15;5.18;;;;;;;-4.41;43.66;102030.97;4424467;32;20089;-74
2022/03/12 05:00:46;;;;;;;10.02;5.00;;;;;;;-4.41;43.64;102037.78;4438944;32;20097;-74
2022/03/12 05:03:20;;;;;;;11.27;5.10;;;;;;;-4.43;43.42;102035.09;4438784;32;20127;-75
2022/03/12 05:05:50;;;;;;;9.93;4.93;;;;;;;-4.39;43.94;102034.53;4438787;32;20092;-74
2022/03/12 05:08:25;;;;;;;8.38;4.60;;;;;;;-4.37;43.49;102035.56;4438780;32;20089;-75
2022/03/12 05:10:55;;;;;;;9.75;4.50;;;;;;;-4.37;43.97;102035.56;4438995;32;20073;-75
2022/03/12 05:13:27;;;;;;;13.18;4.70;;;;;;;-4.39;44.01;102036.22;4424322;32;20484;-75
2022/03/12 05:16:00;;;;;;;9.57;4.75;;;;;;;-4.41;44.04;102038.69;4438937;32;20461;-75
2022/03/12 05:18:28;;;;;;;10.25;5.25;;;;;;;-4.34;43.92;102038.38;4424678;32;20146;-74
2022/03/12 05:20:56;;;;;;;11.43;5.50;;;;;;;-4.28;43.92;102029.28;4438663;32;20507;-75
2022/03/12 05:23:25;;;;;;;10.27;5.53;;;;;;;-4.16;43.61;102032.78;4424128;32;20516;-75
2022/03/12 05:25:53;;;;;;;12.27;5.80;;;;;;;-4.18;43.69;102035.22;4424247;32;21057;-75
2022/03/12 05:28:25;;;;;;;14.38;6.93;;;;;;;-4.05;43.75;102026.75;4424182;32;20433;-75
2022/03/12 05:30:56;;;;;;;13.55;6.68;;;;;;;-4.07;43.69;102033.44;4438605;32;20106;-75
2022/03/12 05:33:25;;;;;;;12.70;6.05;;;;;;;-4.01;43.99;102038.16;4424468;32;20448;-75
2022/03/12 05:35:54;;;;;;;16.35;5.40;;;;;;;-3.95;43.65;102039.50;4424179;32;20129;-75
2022/03/12 05:38:30;;;;;;;13.18;5.28;;;;;;;-3.79;43.24;102033.78;4438580;32;20081;-75
2022/03/12 05:40:58;;;;;;;20.73;7.60;;;;;;;-3.59;42.96;102029.16;4438510;32;20180;-75
2022/03/12 05:43:26;;;;;;;11.75;5.22;;;;;;;-3.59;42.91;102037.78;4438239;32;20181;-75
2022/03/12 05:45:56;;;;;;;13.88;6.07;;;;;;;-3.56;42.83;102029.41;4438594;32;20506;-75
2022/03/12 05:48:24;;;;;;;11.95;5.20;;;;;;;-3.45;42.90;102031.94;4424296;32;20132;-75
2022/03/12 05:50:51;;;;;;;10.05;5.30;;;;;;;-3.37;42.81;102030.78;4438401;32;20136;-75
2022/03/12 05:53:19;;;;;;;8.75;5.00;;;;;;;-3.33;42.97;102031.00;4438181;32;20156;-75
2022/03/12 05:55:48;;;;;;;14.75;5.80;;;;;;;-3.26;42.85;102030.66;4424391;32;20190;-75
2022/03/12 05:58:17;;;;;;;20.12;6.40;;;;;;;-3.20;42.90;102026.81;4438489;32;20081;-75
2022/03/12 06:00:53;;;;;;;14.55;6.72;;;;;;;-3.06;42.80;102032.94;4438246;32;20115;-75
2022/03/12 06:03:21;;;;;;;15.77;7.05;;;;;;;-2.95;42.36;102028.53;4438102;32;20089;-75
2022/03/12 06:05:56;;;;;;;15.52;6.55;;;;;;;-2.85;42.16;102028.38;4438110;32;20204;-75
2022/03/12 06:08:24;;;;;;;16.62;6.53;;;;;;;-2.78;42.22;102024.53;4424764;32;20556;-75
2022/03/12 06:10:55;;;;;;;8.68;5.30;;;;;;;-2.73;42.34;102029.19;4438117;32;20077;-75
2022/03/12 06:13:28;;;;;;;11.95;5.78;;;;;;;-2.64;42.24;102026.34;4423826;32;20137;-75
2022/03/12 06:16:00;;;;;;;18.50;7.05;;;;;;;-2.50;41.95;102027.28;4437988;32;20104;-75
2022/03/12 06:18:29;;;;;;;10.68;5.07;;;;;;;-2.42;41.84;102032.16;4437807;32;20073;-75
2022/03/12 06:20:57;;;;;;;8.38;4.32;;;;;;;-2.26;41.42;102036.66;4437763;32;20548;-75
2022/03/12 06:23:24;;;;;;;9.07;4.55;;;;;;;-2.19;40.84;102032.78;4410838;32;20184;-75
2022/03/12 06:25:52;;;;;;;7.60;4.12;;;;;;;-2.05;40.64;102038.84;4437797;32;20170;-75
2022/03/12 06:28:21;;;;;;;7.75;4.25;;;;;;;-1.93;40.33;102035.38;4437675;32;20085;-75
2022/03/12 06:30:53;;;;;;;8.18;4.30;;;;;;;-1.79;40.44;102035.41;4423408;32;20119;-75
2022/03/12 06:33:22;;;;;;;8.90;4.18;;;;;;;-1.66;40.43;102037.97;4437693;32;20082;-75
2022/03/12 06:35:51;;;;;;;8.93;4.80;;;;;;;-1.61;39.97;102038.25;4437653;32;20158;-75
2022/03/12 06:38:19;;;;;;;6.32;3.90;;;;;;;-1.50;39.82;102050.16;4437608;32;20085;-75
2022/03/12 06:40:47;;;;;;;9.13;4.47;;;;;;;-1.42;39.41;102042.88;4437516;32;20628;-75
2022/03/12 06:43:19;;;;;;;10.43;3.53;;;;;;;-1.33;39.11;102051.25;4437396;32;20093;-75
2022/03/12 06:45:48;;;;;;;9.90;4.20;;;;;;;-1.25;39.18;102055.19;4423916;32;20156;-75
2022/03/12 06:48:17;;;;;;;7.75;4.10;;;;;;;-1.16;38.54;102053.19;4423045;32;20115;-75
2022/03/12 06:50:45;;;;;;;8.70;4.45;;;;;;;-1.12;38.27;102060.34;4437437;32;20123;-75
2022/03/12 06:53:14;;;;;;;9.52;4.03;;;;;;;-0.96;38.76;102059.56;4437468;32;20148;-75
2022/03/12 06:55:42;;;;;;;9.40;4.53;;;;;;;-0.83;38.22;102069.88;4438497;32;20105;-75
2022/03/12 06:58:11;;;;;;;13.60;5.05;;;;;;;-0.84;37.89;102068.09;4439662;32;20101;-75
2022/03/12 07:00:39;;;;;;;16.60;4.15;;;;;;;-0.77;37.83;102069.38;4439547;32;20164;-75
2022/03/12 07:03:06;;;;;;;10.10;4.10;;;;;;;-0.70;38.00;102070.66;4439598;32;20102;-75
2022/03/12 07:05:34;;;;;;;9.77;4.62;;;;;;;-0.66;38.02;102078.69;4439904;32;20151;-75
2022/03/12 07:08:01;;;;;;;8.95;4.20;;;;;;;-0.54;37.61;102079.41;4439440;32;20438;-75
2022/03/12 07:10:29;;;;;;;8.05;4.22;;;;;;;-0.45;38.08;102073.91;4439513;32;20093;-75
2022/03/12 07:12:56;;;;;;;7.53;4.37;;;;;;;-0.34;37.64;102077.13;4439545;32;20121;-75
2022/03/12 07:15:23;;;;;;;12.18;4.15;;;;;;;-0.24;36.95;102079.47;4439457;32;20143;-75
2022/03/12 07:17:51;;;;;;;9.05;4.80;;;;;;;-0.12;37.27;102075.00;4439658;32;20146;-75
2022/03/12 07:20:18;;;;;;;9.27;3.90;;;;;;;-0.12;36.84;102084.47;4439439;32;20081;-75
2022/03/12 07:22:47;;;;;;;11.00;4.00;;;;;;;-0.14;36.97;102088.66;4439337;32;20635;-75
2022/03/12 07:25:15;;;;;;;17.52;4.85;;;;;;;-0.04;37.09;102080.59;4439482;32;20140;-75
2022/03/12 07:27:44;;;;;;;8.88;4.30;;;;;;;0.08;36.77;102085.62;4425025;32;20097;-75
2022/03/12 07:30:14;;;;;;;16.42;4.93;;;;;;;0.06;36.50;102072.56;4439454;32;20514;-75
2022/03/12 07:32:43;;;;;;;13.07;4.43;;;;;;;0.21;36.39;102065.69;4439311;32;20089;-75
2022/03/12 07:35:12;;;;;;;9.02;4.25;;;;;;;0.26;36.60;102067.66;4439609;32;20546;-76
2022/03/12 07:37:40;;;;;;;7.97;4.12;;;;;;;0.42;36.29;102076.34;4439391;32;20181;-75
2022/03/12 07:40:09;;;;;;;9.65;4.15;;;;;;;0.47;36.21;102068.84;4439439;32;20115;-75
2022/03/12 07:42:37;;;;;;;18.83;5.32;;;;;;;0.46;35.89;102069.66;4439226;32;20250;-76
2022/03/12 07:45:07;;;;;;;14.98;5.30;;;;;;;0.63;36.09;102074.06;4439275;32;20130;-75
2022/03/12 07:47:34;;;;;;;10.27;4.43;;;;;;;0.87;35.27;102069.34;4439583;32;20429;-76
2022/03/12 07:50:05;;;;;;;10.80;4.65;;;;;;;0.91;35.07;102063.50;4439314;32;20081;-76
2022/03/12 07:52:33;;;;;;;7.07;4.07;;;;;;;1.02;35.13;102066.66;4439335;32;20675;-75
2022/03/12 07:55:02;;;;;;;9.90;4.50;;;;;;;1.05;35.09;102065.94;4439268;32;20226;-75
2022/03/12 07:57:29;;;;;;;15.35;4.95;;;;;;;1.07;35.16;102057.44;4439131;32;20089;-75
2022/03/12 07:59:59;;;;;;;7.40;4.03;;;;;;;1.25;34.83;102054.94;4439268;32;20183;-75
2022/03/12 08:02:26;;;;;;;14.20;6.32;;;;;;;1.29;33.98;102067.25;4439304;32;20546;-75
2022/03/12 08:04:54;;;;;;;13.45;5.40;;;;;;;1.41;33.66;102067.00;4439203;32;20409;-75
2022/03/12 08:07:22;;;;;;;12.10;5.22;;;;;;;1.41;33.62;102057.53;4438042;32;20081;-75
2022/03/12 08:09:55;;;;;;;9.65;4.93;;;;;;;1.54;33.41;102060.75;4438980;32;20152;-75
2022/03/12 08:12:25;;;;;;;8.15;3.97;;;;;;;1.49;33.69;102055.31;4439199;32;20518;-75
2022/03/12 08:14:52;;;;;;;10.55;4.60;;;;;;;1.65;34.10;102064.78;4424937;32;20128;-75
2022/03/12 08:17:19;;;;;;;12.32;5.50;;;;;;;1.86;33.77;102060.66;4439099;32;20081;-75
2022/03/12 08:19:47;;;;;;;14.77;4.60;;;;;;;2.05;33.52;102054.69;4438964;32;20130;-75
2022/03/12 08:22:14;;;;;;;16.62;6.30;;;;;;;2.23;33.10;102062.50;4439020;32;20093;-76
2022/03/12 08:24:42;;;;;;;10.50;4.75;;;;;;;2.33;31.49;102056.03;4438975;32;20169;-75
2022/03/12 08:27:11;;;;;;;6.93;3.90;;;;;;;2.25;31.90;102058.25;4439301;32;20092;-75
2022/03/12 08:29:39;;;;;;;14.13;4.45;;;;;;;2.22;30.99;102057.22;4439017;32;20105;-75
2022/03/12 08:32:08;;;;;;;8.95;4.15;;;;;;;2.19;31.03;102060.56;4439231;32;20187;-75
2022/03/12 08:34:36;;;;;;;16.98;6.57;;;;;;;2.26;30.96;102062.66;4439027;32;20119;-75
2022/03/12 08:37:04;;;;;;;11.90;5.32;;;;;;;2.24;29.81;102059.06;4438968;32;20077;-75
2022/03/12 08:39:31;;;;;;;10.25;4.85;;;;;;;2.41;29.73;102054.69;4438876;32;20093;-75
2022/03/12 08:41:59;;;;;;;8.02;4.90;;;;;;;2.53;30.03;102062.19;4438997;32;20106;-75
2022/03/12 08:44:26;;;;;;;15.00;4.95;;;;;;;2.71;29.80;102055.25;4439171;32;20105;-75
2022/03/12 08:46:53;;;;;;;12.23;4.78;;;;;;;2.80;29.48;102060.00;4438978;32;20818;-75
2022/03/12 08:49:21;;;;;;;12.23;4.78;;;;;;;2.85;28.92;102048.06;4438881;32;20139;-75
2022/03/12 08:51:49;;;;;;;11.70;4.90;;;;;;;2.90;27.77;102041.38;4438929;32;20148;-75
2022/03/12 08:54:16;;;;;;;16.12;5.03;;;;;;;2.89;28.06;102044.78;4439017;32;20143;-75
2022/03/12 08:56:44;;;;;;;13.45;5.37;;;;;;;3.00;28.49;102048.75;4438898;32;20164;-75
2022/03/12 08:59:12;;;;;;;12.88;4.55;;;;;;;3.10;27.78;102055.28;4438850;32;20093;-75
2022/03/12 09:01:41;;;;;;;11.07;4.32;;;;;;;3.17;27.51;102052.12;4438950;32;20118;-75
2022/03/12 09:04:09;;;;;;;8.05;3.85;;;;;;;3.29;27.71;102051.81;4438818;32;20122;-75
2022/03/12 09:06:37;;;;;;;10.73;4.75;;;;;;;3.45;27.41;102050.75;4438841;32;20134;-75
2022/03/12 09:09:04;;;;;;;7.87;3.60;;;;;;;3.24;26.89;102054.19;4438636;32;20831;-75
2022/03/12 09:11:32;;;;;;;8.70;4.28;;;;;;;3.04;27.31;102055.94;4424020;32;20458;-75
2022/03/12 09:13:59;;;;;;;29.05;4.05;;;;;;;3.22;27.28;102052.38;4438343;32;20149;-75
2022/03/12 09:16:27;;;;;;;7.57;3.72;;;;;;;3.54;27.50;102046.84;4438840;32;20112;-75
2022/03/12 09:18:54;;;;;;;9.32;4.10;;;;;;;3.52;26.02;102055.41;4438112;32;20105;-74
2022/03/12 09:21:21;;;;;;;9.10;4.60;;;;;;;3.54;26.45;102053.78;4438707;32;20648;-75
2022/03/12 09:23:49;;;;;;;9.57;4.45;;;;;;;3.54;26.62;102053.78;4438717;32;20161;-75
2022/03/12 09:26:17;;;;;;;8.45;3.95;;;;;;;3.45;26.84;102053.38;4438788;32;20093;-75
2022/03/12 09:28:44;;;;;;;6.80;3.45;;;;;;;3.41;26.52;102048.84;4424237;32;20093;-75
2022/03/12 09:31:11;;;;;;;7.28;3.62;;;;;;;3.73;27.17;102047.63;4438472;32;20144;-75
2022/03/12 09:33:39;;;;;;;6.87;3.10;;;;;;;3.92;25.28;102046.69;4438567;32;20208;-75
2022/03/12 09:36:09;;;;;;;6.62;3.58;;;;;;;3.89;26.05;102047.47;4438561;32;20089;-75
2022/03/12 09:38:37;;;;;;;9.20;3.50;;;;;;;3.97;25.40;102046.06;4438516;32;20093;-75
2022/03/12 09:41:05;;;;;;;11.90;4.28;;;;;;;3.97;25.07;102043.44;4423884;32;20155;-75
2022/03/12 09:43:32;;;;;;;7.50;3.33;;;;;;;3.67;25.92;102045.66;4424204;32;20105;-75
2022/03/12 09:46:00;;;;;;;7.85;3.90;;;;;;;4.08;25.84;102031.75;4438366;32;20081;-75
2022/03/12 09:48:27;;;;;;;15.02;3.60;;;;;;;4.32;24.83;102033.56;4438338;32;20488;-75
2022/03/12 09:50:55;;;;;;;6.53;3.80;;;;;;;4.05;24.99;102033.34;4438653;32;20457;-75
2022/03/12 09:53:23;;;;;;;19.55;3.78;;;;;;;4.31;25.18;102034.38;4438403;32;20105;-75
2022/03/12 09:55:50;;;;;;;10.70;3.33;;;;;;;4.55;24.86;102027.50;4438330;32;20506;-75
2022/03/12 09:58:18;;;;;;;6.43;3.25;;;;;;;4.91;25.68;102029.78;4438445;32;20172;-75
2022/03/12 10:00:46;;;;;;;7.53;3.78;;;;;;;5.22;24.93;102021.31;4438220;32;20465;-75
2022/03/12 10:03:13;;;;;;;5.68;2.78;;;;;;;5.37;24.16;102022.69;4438296;32;20484;-75
2022/03/12 10:05:41;;;;;;;10.02;3.37;;;;;;;5.35;23.66;102021.78;4438212;32;20124;-75
2022/03/12 10:08:08;;;;;;;3.35;2.42;;;;;;;4.65;24.13;102027.88;4438209;32;20090;-75
2022/03/12 10:10:36;;;;;;;6.03;3.33;;;;;;;4.82;24.36;102020.69;4438190;32;20097;-75
2022/03/12 10:13:04;;;;;;;12.32;3.17;;;;;;;5.00;24.59;102024.00;4437919;32;20522;-75
2022/03/12 10:15:31;;;;;;;6.37;3.20;;;;;;;5.30;23.81;102023.31;4437969;32;20176;-75
2022/03/12 10:18:00;;;;;;;14.77;3.72;;;;;;;5.42;24.46;102014.19;4437981;32;20094;-75
2022/03/12 10:20:28;;;;;;;5.62;2.90;;;;;;;5.71;23.81;102015.19;4437723;32;20128;-75
2022/03/12 10:22:55;;;;;;;6.10;3.15;;;;;;;5.46;23.27;102017.81;4437961;32;20465;-75
2022/03/12 10:25:23;;;;;;;4.72;3.10;;;;;;;5.46;22.99;102008.25;4437837;32;20097;-75
2022/03/12 10:27:51;;;;;;;5.62;3.05;;;;;;;5.88;23.48;102007.94;4423600;32;20154;-75
2022/03/12 10:30:18;;;;;;;6.78;2.80;;;;;;;6.35;22.74;102015.56;4438389;32;20524;-75
2022/03/12 10:32:48;;;;;;;8.68;2.72;;;;;;;6.78;22.27;102015.16;4440114;32;20120;-75
2022/03/12 10:35:18;;;;;;;3.30;2.45;;;;;;;7.00;22.27;102010.56;4440044;32;20137;-75
2022/03/12 10:37:48;;;;;;;7.40;2.90;;;;;;;6.89;21.65;102005.91;4425283;32;20119;-75
2022/03/12 10:40:19;;;;;;;3.35;2.42;;;;;;;6.51;21.72;102009.97;4439893;32;20097;-75
2022/03/12 10:42:56;;;;;;;5.47;2.60;;;;;;;6.16;23.39;102001.03;4439913;32;20325;-75
2022/03/12 10:45:30;;;;;;;4.60;2.62;;;;;;;6.85;22.08;102005.75;4439906;32;20100;-76
2022/03/12 10:48:02;;;;;;;4.28;3.05;;;;;;;6.96;21.75;101993.81;4439876;32;20713;-75
2022/03/12 10:50:35;;;;;;;6.43;2.90;;;;;;;7.55;21.79;101991.97;4439516;32;20463;-75
2022/03/12 10:53:06;;;;;;;4.95;2.87;;;;;;;7.78;21.56;101994.31;4439832;32;20120;-75
2022/03/12 10:55:40;;;;;;;7.22;3.22;;;;;;;7.62;20.48;101986.03;4439784;32;20502;-75
2022/03/12 10:58:16;;;;;;;4.03;2.75;;;;;;;7.61;21.15;101983.38;4439746;32;20073;-75
2022/03/12 11:00:53;;;;;;;3.58;2.25;;;;;;;7.60;20.35;101982.50;4439655;32;20124;-76
2022/03/12 11:03:24;;;;;;;5.87;2.97;;;;;;;8.46;19.22;101976.72;4439941;32;20113;-76
2022/03/12 11:05:54;;;;;;;7.47;3.28;;;;;;;9.16;18.96;101976.41;4439657;32;20084;-75
2022/03/12 11:08:26;;;;;;;5.57;2.50;;;;;;;9.78;17.80;101974.00;4439657;32;20119;-75
2022/03/12 11:11:06;;;;;;;9.63;3.17;;;;;;;10.29;17.93;101976.63;4439706;32;20128;-76
2022/03/12 11:13:50;;;;;;;3.83;2.65;;;;;;;10.40;17.51;101974.16;4439692;32;20109;-74
2022/03/12 11:16:31;;;;;;;4.53;3.15;;;;;;;11.49;17.53;101962.28;4439647;32;20104;-73
2022/03/12 11:19:07;;;;;;;5.65;3.28;;;;;;;13.20;16.62;101953.62;4439478;32;20188;-73
2022/03/12 11:21:44;;;;;;;7.62;3.28;;;;;;;13.07;15.53;101950.06;4439835;32;20160;-74
2022/03/12 11:24:27;;;;;;;11.15;3.30;;;;;;;11.87;16.11;101949.44;4439549;32;20119;-74
2022/03/12 11:27:00;;;;;;;10.48;3.15;;;;;;;12.71;16.07;101941.13;4439783;32;20103;-74
2022/03/12 11:29:29;;;;;;;7.53;3.05;;;;;;;14.99;14.79;101946.38;4439462;32;20085;-74
2022/03/12 11:32:05;;;;;;;4.97;2.78;;;;;;;13.04;15.02;101936.81;4439446;32;20097;-74
2022/03/12 11:34:39;;;;;;;5.80;3.17;;;;;;;14.11;15.35;101932.50;4439489;32;20093;-74